Weather at Letňany Airfield

Public forecast

Using degrees Celsius for public forecast. Weather courtesy of forecast.io.

Closest aviation weather report (METAR) to Letňany Airfield

Closest report is Kbely Air Base, 0.9 nm (1.7 km) SE.

2024/06/15 17:00 (retrieved 1 hour ago)

LKKB 151700Z 23004KT CAVOK 19/11 Q1010 NOSIG

Closest aviation forecast (TAF) to Letňany Airfield

Closest forecast is Kbely Air Base, 0.9 nm (1.7 km) SE.

2024/06/15 18:00 (retrieved 1 minute ago)

TAF LKKB 151700Z 1518/1618 24008KT CAVOK BECMG 1600/1602 20005KT BECMG 1604/1606 25007KT 9999 SCT030